Time;durP1;ratioP1;P1;durP2;ratioP2;P2;SDS_P1;SDS_P2;PMS_P1;PMS_P2;Temp;Humidity;BMP_temperature;BMP_pressure;BME280_temperature;BME280_humidity;BME280_pressure;Samples;Min_cycle;Max_cycle;Signal;HPM_P1;HPM_P2
2023/07/14 00:00:22;;;;;;;0.10;0.10;;;;;;;19.05;61.71;101831.84;5052775;28;20393;-79
2023/07/14 00:02:51;;;;;;;0.05;0.05;;;;;;;19.04;61.68;101824.72;5050003;28;20112;-77
2023/07/14 00:05:22;;;;;;;0.88;0.80;;;;;;;19.06;61.45;101820.16;5051812;28;20041;-78
2023/07/14 00:07:50;;;;;;;0.10;0.10;;;;;;;19.05;61.75;101823.78;5051218;28;20025;-79
2023/07/14 00:10:20;;;;;;;0.13;0.13;;;;;;;19.06;61.69;101822.81;5055835;28;20059;-78
2023/07/14 00:12:48;;;;;;;0.10;0.10;;;;;;;19.05;61.68;101817.53;5051793;28;20494;-76
2023/07/14 00:15:15;;;;;;;0.10;0.10;;;;;;;19.03;61.59;101817.59;5051500;28;20025;-78
2023/07/14 00:17:43;;;;;;;0.20;0.20;;;;;;;19.03;61.33;101817.59;5051699;28;20029;-78
2023/07/14 00:20:19;;;;;;;0.00;0.00;;;;;;;19.07;61.64;101810.28;5051553;28;20087;-77
2023/07/14 00:22:45;;;;;;;0.45;0.45;;;;;;;19.01;61.73;101803.34;5051579;28;20017;-78
2023/07/14 00:25:12;;;;;;;0.20;0.20;;;;;;;19.00;61.93;101815.00;5037401;28;20021;-79
2023/07/14 00:27:39;;;;;;;0.10;0.10;;;;;;;18.96;61.78;101810.72;5059163;28;20025;-77
2023/07/14 00:30:23;;;;;;;0.10;0.10;;;;;;;19.01;61.68;101803.34;5050950;28;20025;-78
2023/07/14 00:32:51;;;;;;;0.03;0.03;;;;;;;18.94;62.68;101804.56;5052847;28;20029;-79
2023/07/14 00:37:57;;;;;;;0.10;0.10;;;;;;;18.90;61.68;101795.75;5111636;27;20415;-81
2023/07/14 00:40:43;;;;;;;2.45;1.55;;;;;;;18.94;62.06;101799.19;5113613;28;20020;-81
2023/07/14 00:43:19;;;;;;;0.10;0.10;;;;;;;18.91;62.35;101791.22;5111919;28;20012;-81
2023/07/14 00:45:49;;;;;;;0.10;0.10;;;;;;;18.86;62.25;101787.81;5103298;28;20020;-81
2023/07/14 00:48:20;;;;;;;0.28;0.13;;;;;;;18.86;62.33;101798.56;5103072;28;20032;-81
2023/07/14 00:59:10;;;;;;;0.10;0.10;;;;;;;18.76;63.15;101777.44;5161186;27;20099;-77
2023/07/14 01:01:36;;;;;;;0.10;0.10;;;;;;;18.74;62.64;101790.06;5149073;27;20510;-76
2023/07/14 01:04:02;;;;;;;0.10;0.10;;;;;;;18.73;62.78;101785.63;5137074;28;20068;-78
2023/07/14 01:06:35;;;;;;;0.10;0.10;;;;;;;18.75;62.91;101781.09;5122317;28;20023;-79
2023/07/14 01:09:08;;;;;;;0.00;0.00;;;;;;;18.73;62.60;101780.25;5125046;28;20023;-78
2023/07/14 01:14:16;;;;;;;1.20;0.95;;;;;;;18.73;63.02;101776.72;5113737;27;20376;-78
2023/07/14 01:16:42;;;;;;;;;;;;;;;18.81;62.79;101774.56;5089396;28;20031;-77
2023/07/14 01:22:28;;;;;;;0.00;0.00;;;;;;;18.68;63.28;101774.19;5064246;28;20408;-78
2023/07/14 01:27:42;;;;;;;0.10;0.10;;;;;;;18.58;63.28;101771.00;5104631;28;20332;-76
2023/07/14 01:30:08;;;;;;;0.00;0.00;;;;;;;18.58;63.08;101778.19;5083954;28;20028;-78
2023/07/14 01:32:38;;;;;;;0.10;0.10;;;;;;;18.57;63.25;101765.69;5078123;28;20060;-77
2023/07/14 01:35:07;;;;;;;0.10;0.10;;;;;;;18.55;63.40;101763.03;5067246;28;20112;-76
2023/07/14 01:37:37;;;;;;;0.00;0.00;;;;;;;18.54;63.64;101760.44;5073165;28;20058;-78
2023/07/14 01:40:11;;;;;;;0.10;0.10;;;;;;;18.55;63.25;101763.03;5060843;28;20442;-78
2023/07/14 01:42:40;;;;;;;0.17;0.17;;;;;;;18.52;63.50;101757.81;5081121;28;20029;-76
2023/07/14 01:45:13;;;;;;;0.00;0.00;;;;;;;18.55;63.12;101756.81;5076600;28;20029;-76
2023/07/14 01:47:42;;;;;;;0.00;0.00;;;;;;;18.51;63.56;101761.44;5072873;28;20494;-78
2023/07/14 01:50:20;;;;;;;0.20;0.20;;;;;;;18.53;63.46;101761.34;5074014;28;20108;-76
2023/07/14 01:52:52;;;;;;;0.10;0.10;;;;;;;18.47;63.59;101758.91;5088829;28;20035;-77
2023/07/14 01:55:20;;;;;;;0.00;0.00;;;;;;;18.45;64.15;101766.16;5084842;28;20167;-77
2023/07/14 01:57:51;;;;;;;0.00;0.00;;;;;;;18.43;64.04;101761.72;5084866;28;20435;-77
2023/07/14 02:00:18;;;;;;;0.10;0.10;;;;;;;18.41;63.87;101758.22;5065859;28;20036;-78
2023/07/14 02:02:46;;;;;;;0.10;0.10;;;;;;;18.38;64.30;101753.00;5072990;28;20040;-77
2023/07/14 02:05:34;;;;;;;0.10;0.10;;;;;;;18.46;63.80;101746.47;5069130;28;20025;-78
2023/07/14 02:08:04;;;;;;;0.10;0.10;;;;;;;18.37;64.32;101753.06;5066849;28;20029;-78
2023/07/14 02:10:31;;;;;;;0.00;0.00;;;;;;;18.35;63.68;101755.78;5068244;28;20029;-77
2023/07/14 02:12:59;;;;;;;0.10;0.10;;;;;;;18.34;64.31;101753.16;5071887;28;20033;-77
2023/07/14 02:15:29;;;;;;;0.10;0.10;;;;;;;18.34;64.18;101756.69;5065836;28;20033;-78
2023/07/14 02:17:56;;;;;;;0.10;0.10;;;;;;;18.31;64.04;101753.28;5060357;28;20560;-79
2023/07/14 02:20:29;;;;;;;0.00;0.00;;;;;;;18.33;64.08;101746.94;5066396;28;20512;-78
2023/07/14 02:22:57;;;;;;;0.30;0.30;;;;;;;18.29;64.45;101742.59;5063325;28;20041;-79
2023/07/14 02:25:27;;;;;;;0.10;0.10;;;;;;;18.27;64.47;101739.09;5062259;28;20097;-78
2023/07/14 02:27:53;;;;;;;0.00;0.00;;;;;;;18.26;64.34;101746.25;5072058;28;20044;-78
2023/07/14 02:30:22;;;;;;;0.10;0.10;;;;;;;18.25;64.00;101740.97;5056901;28;20021;-79
2023/07/14 02:32:54;;;;;;;0.30;0.30;;;;;;;18.21;64.31;101742.88;5061478;28;20106;-76
2023/07/14 02:38:03;;;;;;;0.10;0.10;;;;;;;18.21;63.84;101739.34;5057484;28;20784;-78
2023/07/14 02:43:13;;;;;;;0.10;0.10;;;;;;;18.18;63.45;101742.13;5083852;27;20868;-78
2023/07/14 02:45:57;;;;;;;0.00;0.00;;;;;;;18.20;63.58;101741.13;5077119;28;20028;-79
2023/07/14 02:48:44;;;;;;;0.00;0.00;;;;;;;18.14;63.67;101740.50;5085822;28;20478;-77
2023/07/14 02:51:11;;;;;;;0.08;0.08;;;;;;;18.07;63.67;101743.41;5081563;28;20028;-78
2023/07/14 02:53:38;;;;;;;0.10;0.10;;;;;;;18.06;63.73;101738.97;5088842;28;20412;-79
2023/07/14 02:56:05;;;;;;;0.00;0.00;;;;;;;18.02;63.41;101733.78;5088596;28;20036;-78
2023/07/14 02:58:33;;;;;;;0.08;0.08;;;;;;;17.97;63.70;101738.44;5087428;28;20065;-77
2023/07/14 03:01:00;;;;;;;2.63;0.60;;;;;;;17.95;63.66;101741.19;5086559;28;20039;-78
2023/07/14 03:03:27;;;;;;;0.00;0.00;;;;;;;17.93;63.63;101737.63;5090626;28;20036;-78
2023/07/14 03:05:54;;;;;;;0.10;0.10;;;;;;;17.89;64.21;101736.00;5084546;28;20100;-76
2023/07/14 03:08:20;;;;;;;0.05;0.05;;;;;;;17.88;63.70;101739.63;5085673;28;20064;-78
2023/07/14 03:10:54;;;;;;;0.20;0.20;;;;;;;17.86;63.86;101742.34;5084910;28;20024;-78
2023/07/14 03:13:20;;;;;;;0.10;0.10;;;;;;;17.82;63.80;101735.38;5083304;28;20031;-78
2023/07/14 03:15:47;;;;;;;0.10;0.10;;;;;;;17.80;63.77;101734.53;5083628;28;20033;-78
2023/07/14 03:18:14;;;;;;;0.10;0.10;;;;;;;17.75;63.86;101729.34;5087863;28;20082;-78
2023/07/14 03:20:41;;;;;;;0.10;0.10;;;;;;;17.72;63.57;101725.88;5078992;28;20079;-77
2023/07/14 03:23:08;;;;;;;0.03;0.03;;;;;;;17.72;63.39;101726.78;5075204;28;20037;-77
2023/07/14 03:25:34;;;;;;;0.20;0.20;;;;;;;17.74;63.35;101726.72;5076765;28;20027;-78
2023/07/14 03:28:03;;;;;;;0.00;0.00;;;;;;;17.70;63.28;101720.59;5073349;28;20051;-78
2023/07/14 03:30:31;;;;;;;0.00;0.00;;;;;;;17.69;63.02;101721.50;5080928;28;20039;-76
2023/07/14 03:32:57;;;;;;;0.10;0.10;;;;;;;17.71;62.91;101727.72;5086367;28;20013;-76
2023/07/14 03:35:24;;;;;;;0.00;0.00;;;;;;;17.70;63.01;101719.72;5079852;28;20025;-77
2023/07/14 03:37:50;;;;;;;0.10;0.10;;;;;;;17.65;63.48;101727.91;5078613;28;20128;-77
2023/07/14 03:40:16;;;;;;;0.10;0.10;;;;;;;17.63;63.53;101724.41;5069759;28;20045;-79
2023/07/14 03:42:43;;;;;;;0.00;0.00;;;;;;;17.63;63.46;101725.31;5070846;28;20036;-78
2023/07/14 03:45:10;;;;;;;0.10;0.10;;;;;;;17.62;63.53;101722.69;5078691;28;20115;-78
2023/07/14 03:47:38;;;;;;;0.10;0.10;;;;;;;17.62;63.47;101717.31;5070795;28;20028;-77
2023/07/14 03:50:04;;;;;;;0.00;0.00;;;;;;;17.60;63.54;101725.41;5074917;28;20394;-77
2023/07/14 03:52:31;;;;;;;0.10;0.10;;;;;;;17.60;63.67;101719.19;5073401;28;20017;-77
2023/07/14 03:54:57;;;;;;;0.10;0.10;;;;;;;17.61;63.66;101728.97;5067221;28;20416;-77
2023/07/14 03:57:23;;;;;;;0.00;0.00;;;;;;;17.56;63.78;101720.22;5062826;28;20383;-77
2023/07/14 03:59:49;;;;;;;0.00;0.00;;;;;;;17.51;64.34;101711.44;5064533;28;20398;-77
2023/07/14 04:02:15;;;;;;;0.10;0.10;;;;;;;17.52;63.93;101710.53;5068727;28;20028;-77
2023/07/14 04:04:42;;;;;;;0.00;0.00;;;;;;;17.53;63.93;101712.28;5064740;28;20041;-78
2023/07/14 04:07:08;;;;;;;0.10;0.10;;;;;;;17.56;63.73;101706.81;5066575;28;20059;-77
2023/07/14 04:09:34;;;;;;;0.10;0.10;;;;;;;17.57;63.85;101713.91;5062646;28;20417;-76
2023/07/14 04:12:00;;;;;;;0.10;0.10;;;;;;;17.58;63.83;101704.94;5069258;28;20032;-77
2023/07/14 04:14:26;;;;;;;0.10;0.10;;;;;;;17.58;63.79;101710.31;5066156;28;20040;-77
2023/07/14 04:16:52;;;;;;;0.10;0.10;;;;;;;17.57;64.15;101705.88;5063498;28;20028;-77
2023/07/14 04:19:19;;;;;;;0.40;0.40;;;;;;;17.55;64.25;101703.25;5067486;28;20381;-76
2023/07/14 04:21:46;;;;;;;0.00;0.00;;;;;;;17.56;64.19;101701.47;5069148;28;20028;-78
2023/07/14 04:24:13;;;;;;;0.10;0.10;;;;;;;17.54;64.55;101716.72;5062957;28;20043;-78
2023/07/14 04:26:39;;;;;;;0.00;0.00;;;;;;;17.54;64.57;101706.00;5069729;28;20024;-78
2023/07/14 04:29:10;;;;;;;0.10;0.10;;;;;;;17.56;64.17;101706.81;5064416;28;20036;-78
2023/07/14 04:31:38;;;;;;;0.05;0.05;;;;;;;17.57;64.58;101703.19;5065075;28;20078;-78
2023/07/14 04:34:04;;;;;;;0.40;0.40;;;;;;;17.60;64.65;101703.09;5064441;28;20090;-78
2023/07/14 04:36:30;;;;;;;0.10;0.10;;;;;;;17.62;64.34;101712.81;5066268;28;20096;-78
2023/07/14 04:39:05;;;;;;;0.10;0.10;;;;;;;17.66;64.62;101708.25;5068919;28;20029;-79
2023/07/14 04:41:33;;;;;;;0.10;0.10;;;;;;;17.67;64.38;101710.00;5064703;28;20021;-78
2023/07/14 04:44:05;;;;;;;0.00;0.00;;;;;;;17.71;64.45;101708.09;5064083;28;20086;-77
2023/07/14 04:46:31;;;;;;;;;;;;;;;17.83;64.13;101704.06;5065869;28;20025;-75
2023/07/14 04:48:57;;;;;;;0.10;0.10;;;;;;;17.73;64.51;101708.88;5065259;28;19909;-78
2023/07/14 04:51:24;;;;;;;0.10;0.10;;;;;;;17.72;64.41;101699.97;5068765;28;20021;-77
2023/07/14 04:53:50;;;;;;;0.20;0.20;;;;;;;17.75;64.54;101702.53;5067735;28;20028;-78
2023/07/14 04:56:16;;;;;;;0.10;0.10;;;;;;;17.77;64.56;101699.81;5066805;28;20229;-78
2023/07/14 04:58:43;;;;;;;0.10;0.10;;;;;;;17.81;64.37;101696.09;5063338;28;20116;-77
2023/07/14 05:01:09;;;;;;;0.10;0.10;;;;;;;17.84;64.61;101700.47;5065855;28;20025;-77
2023/07/14 05:03:35;;;;;;;0.20;0.20;;;;;;;17.87;64.65;101700.31;5064914;28;20033;-75
2023/07/14 05:06:01;;;;;;;0.10;0.10;;;;;;;17.90;64.61;101697.56;5066284;28;20039;-76
2023/07/14 05:08:27;;;;;;;0.30;0.30;;;;;;;17.87;64.85;101694.97;5064784;28;20405;-77
2023/07/14 05:10:53;;;;;;;0.03;0.03;;;;;;;17.94;64.72;101699.22;5068863;28;20017;-77
2023/07/14 05:13:20;;;;;;;0.10;0.10;;;;;;;17.95;64.94;101691.09;5063093;28;20020;-78
2023/07/14 05:15:46;;;;;;;0.13;0.13;;;;;;;17.99;64.36;101686.50;5068791;28;20106;-77
2023/07/14 05:18:12;;;;;;;0.65;0.40;;;;;;;17.98;65.23;101691.94;5063967;28;20029;-77
2023/07/14 05:20:41;;;;;;;0.10;0.10;;;;;;;18.05;64.99;101688.09;5070270;28;20028;-77
2023/07/14 05:23:10;;;;;;;0.10;0.10;;;;;;;18.10;64.82;101692.31;5067522;28;20016;-78
2023/07/14 05:25:36;;;;;;;0.10;0.10;;;;;;;18.18;64.63;101688.47;5064793;28;20064;-77
2023/07/14 05:28:02;;;;;;;0.00;0.00;;;;;;;18.24;64.94;101682.88;5065721;28;20032;-77
2023/07/14 05:30:30;;;;;;;0.00;0.00;;;;;;;18.30;64.76;101682.63;5062356;28;20025;-77
2023/07/14 05:32:56;;;;;;;0.00;0.00;;;;;;;18.37;64.77;101685.97;5066628;28;20458;-77
2023/07/14 05:35:24;;;;;;;0.10;0.10;;;;;;;18.42;64.75;101681.31;5062563;28;20028;-77
2023/07/14 05:37:50;;;;;;;0.28;0.28;;;;;;;18.50;64.80;101681.00;5063658;28;20024;-77
2023/07/14 05:40:17;;;;;;;0.10;0.10;;;;;;;18.53;64.70;101683.53;5063859;28;20024;-77
2023/07/14 05:42:44;;;;;;;0.10;0.10;;;;;;;18.58;64.45;101676.19;5064559;28;20025;-76
2023/07/14 05:45:11;;;;;;;0.25;0.25;;;;;;;18.58;64.18;101682.44;5067116;28;20060;-78
2023/07/14 05:47:40;;;;;;;0.00;0.00;;;;;;;18.67;64.08;101678.50;5063815;28;20032;-75
2023/07/14 05:50:07;;;;;;;0.10;0.10;;;;;;;18.73;64.07;101680.94;5063449;28;20033;-78
2023/07/14 05:52:34;;;;;;;0.40;0.40;;;;;;;18.79;64.10;101678.94;5064858;28;20056;-79
2023/07/14 05:55:03;;;;;;;0.40;0.40;;;;;;;18.83;64.15;101683.22;5067026;28;20567;-80
2023/07/14 05:57:30;;;;;;;0.20;0.20;;;;;;;18.86;63.71;101681.28;5062631;28;20720;-78
2023/07/14 05:59:57;;;;;;;0.10;0.10;;;;;;;18.93;63.77;101665.84;5075206;28;20368;-76
2023/07/14 06:02:23;;;;;;;0.00;0.00;;;;;;;19.01;63.56;101671.75;5078276;28;20020;-77
2023/07/14 06:04:49;;;;;;;0.10;0.10;;;;;;;18.96;64.19;101684.50;5070152;28;20032;-76
2023/07/14 06:07:16;;;;;;;0.10;0.10;;;;;;;19.07;63.43;101674.16;5061014;28;20087;-75
2023/07/14 06:09:43;;;;;;;0.10;0.10;;;;;;;19.11;63.64;101666.00;5054020;28;21276;-75
2023/07/14 06:12:11;;;;;;;0.10;0.10;;;;;;;19.21;63.27;101670.88;5060541;28;20024;-78
2023/07/14 06:14:38;;;;;;;0.10;0.10;;;;;;;19.26;63.34;101668.00;5060578;28;20020;-78
2023/07/14 06:17:08;;;;;;;2.25;0.43;;;;;;;19.35;63.42;101661.38;5067246;28;20425;-78
2023/07/14 06:19:36;;;;;;;0.13;0.13;;;;;;;19.44;63.40;101663.66;5067421;28;20027;-77
2023/07/14 06:22:04;;;;;;;0.10;0.10;;;;;;;19.52;63.42;101655.25;5064235;28;20840;-75
2023/07/14 06:24:31;;;;;;;0.20;0.20;;;;;;;19.53;62.96;101660.56;5064314;28;20021;-77
2023/07/14 06:26:57;;;;;;;0.40;0.40;;;;;;;19.62;62.72;101659.25;5069176;28;20047;-76
2023/07/14 06:29:23;;;;;;;0.10;0.10;;;;;;;19.68;62.74;101655.44;5065872;28;20047;-77
2023/07/14 06:31:49;;;;;;;0.35;0.35;;;;;;;19.80;62.60;101662.94;5069707;28;20025;-78
2023/07/14 06:34:15;;;;;;;0.10;0.10;;;;;;;19.87;62.36;101653.66;5065113;28;20103;-78
2023/07/14 06:36:41;;;;;;;0.10;0.10;;;;;;;19.92;62.19;101656.13;5069571;28;20036;-78
2023/07/14 06:39:08;;;;;;;0.00;0.00;;;;;;;20.02;62.15;101657.44;5065985;28;20025;-77
2023/07/14 06:41:36;;;;;;;3.83;1.08;;;;;;;20.11;61.93;101650.78;5062353;28;20055;-78
2023/07/14 06:44:02;;;;;;;0.00;0.00;;;;;;;20.20;61.44;101657.56;5066127;28;20075;-78
2023/07/14 06:46:30;;;;;;;0.10;0.10;;;;;;;20.30;61.13;101653.47;5067565;28;20033;-77
2023/07/14 06:48:57;;;;;;;0.10;0.10;;;;;;;20.32;60.51;101643.47;5067484;28;20051;-75
2023/07/14 06:51:25;;;;;;;0.45;0.38;;;;;;;20.41;60.72;101647.56;5058518;28;20421;-78
2023/07/14 06:53:51;;;;;;;0.15;0.15;;;;;;;20.46;60.65;101644.63;5071635;28;20052;-77
2023/07/14 06:56:17;;;;;;;0.30;0.30;;;;;;;20.49;60.54;101647.19;5070683;28;20513;-78
2023/07/14 06:58:43;;;;;;;0.00;0.00;;;;;;;20.58;60.22;101644.03;5072873;28;20020;-78
2023/07/14 07:01:10;;;;;;;0.10;0.10;;;;;;;20.68;60.26;101649.84;5066488;28;20108;-77
2023/07/14 07:03:36;;;;;;;0.13;0.13;;;;;;;20.75;59.70;101645.94;5060400;28;20029;-77
2023/07/14 07:06:03;;;;;;;0.10;0.10;;;;;;;20.77;59.24;101644.03;5058487;28;20595;-78
2023/07/14 07:08:29;;;;;;;0.10;0.10;;;;;;;20.84;59.12;101641.91;5061316;28;20056;-80
2023/07/14 07:10:56;;;;;;;0.20;0.20;;;;;;;20.92;59.42;101637.00;5067354;28;20094;-78
2023/07/14 07:13:22;;;;;;;0.10;0.10;;;;;;;20.94;59.09;101643.16;5066637;28;20056;-78
2023/07/14 07:15:48;;;;;;;0.10;0.10;;;;;;;21.00;58.96;101634.78;5066811;28;20033;-78
2023/07/14 07:18:19;;;;;;;0.68;0.68;;;;;;;21.09;58.59;101641.50;5061543;28;20028;-78
2023/07/14 07:20:45;;;;;;;0.65;0.65;;;;;;;21.14;58.73;101631.34;5064474;28;20021;-77
2023/07/14 07:23:11;;;;;;;0.13;0.13;;;;;;;21.19;58.14;101631.13;5064658;28;20024;-76
2023/07/14 07:25:38;;;;;;;0.30;0.30;;;;;;;21.25;58.00;101621.84;5070458;28;20085;-78
2023/07/14 07:28:04;;;;;;;0.17;0.17;;;;;;;21.31;57.82;101627.78;5075666;28;20025;-77
2023/07/14 07:30:31;;;;;;;2.13;0.90;;;;;;;21.44;58.20;101619.03;5068275;28;20033;-77
2023/07/14 07:32:58;;;;;;;0.40;0.40;;;;;;;21.47;58.11;101618.88;5067670;28;20062;-76
2023/07/14 07:35:25;;;;;;;0.00;0.00;;;;;;;21.50;57.86;101621.41;5067355;28;20033;-77
2023/07/14 07:37:51;;;;;;;0.17;0.17;;;;;;;21.53;57.78;101618.53;5070835;28;20573;-78
2023/07/14 07:40:18;;;;;;;0.75;0.75;;;;;;;21.48;57.27;101620.63;5077608;28;20063;-77
2023/07/14 07:42:44;;;;;;;0.25;0.25;;;;;;;21.47;56.67;101608.09;5071654;28;20021;-76
2023/07/14 07:45:11;;;;;;;1.48;0.75;;;;;;;21.50;57.63;101610.63;5066761;28;20174;-77
2023/07/14 07:47:37;;;;;;;0.52;0.52;;;;;;;21.54;57.15;101606.81;5076546;28;20031;-76
2023/07/14 07:50:04;;;;;;;0.68;0.68;;;;;;;21.55;56.93;101605.84;5084973;28;20039;-76
2023/07/14 07:52:32;;;;;;;0.00;0.00;;;;;;;21.70;57.39;101611.41;5073393;28;20390;-77
2023/07/14 07:54:58;;;;;;;0.38;0.38;;;;;;;21.77;57.61;101613.69;5080752;28;20028;-77
2023/07/14 07:57:25;;;;;;;0.95;0.95;;;;;;;21.86;57.36;101612.31;5105794;28;20478;-77
2023/07/14 07:59:51;;;;;;;0.40;0.40;;;;;;;21.92;57.00;101602.97;5075556;28;20048;-78
2023/07/14 08:02:17;;;;;;;0.20;0.20;;;;;;;22.02;56.83;101611.44;5072878;28;20051;-77
2023/07/14 08:04:43;;;;;;;0.30;0.30;;;;;;;22.18;56.69;101606.94;5080332;28;20159;-78
2023/07/14 08:07:12;;;;;;;0.10;0.10;;;;;;;22.28;56.42;101607.25;5071619;28;20033;-78
2023/07/14 08:09:38;;;;;;;0.00;0.00;;;;;;;22.38;55.45;101605.81;5079078;28;20066;-77
2023/07/14 08:12:05;;;;;;;0.20;0.20;;;;;;;22.48;55.54;101598.06;5070828;28;20452;-74
2023/07/14 08:14:48;;;;;;;0.30;0.30;;;;;;;22.64;55.91;101597.13;5078808;28;20028;-75
2023/07/14 08:17:14;;;;;;;0.10;0.10;;;;;;;22.74;55.20;101598.31;5079230;28;20032;-77
2023/07/14 08:19:40;;;;;;;0.10;0.10;;;;;;;22.60;54.27;101608.13;5077994;28;20489;-76
2023/07/14 08:22:07;;;;;;;0.10;0.10;;;;;;;22.67;54.40;101594.25;5071860;28;20051;-78
2023/07/14 08:24:33;;;;;;;0.30;0.30;;;;;;;22.71;54.67;101587.72;5080313;28;20541;-77
2023/07/14 08:26:59;;;;;;;0.28;0.28;;;;;;;22.82;54.69;101587.94;5080250;28;20402;-78
2023/07/14 08:29:25;;;;;;;0.03;0.03;;;;;;;22.77;54.30;101598.16;5080260;28;20103;-78
2023/07/14 08:31:51;;;;;;;0.10;0.10;;;;;;;22.83;54.35;101597.78;5083630;28;20031;-77
2023/07/14 08:34:17;;;;;;;0.10;0.10;;;;;;;22.92;54.71;101602.63;5091088;28;20060;-76
2023/07/14 08:36:44;;;;;;;3.03;1.17;;;;;;;23.03;53.65;101606.50;5079446;28;20025;-77
2023/07/14 08:39:10;;;;;;;0.10;0.10;;;;;;;23.04;53.40;101601.03;5075947;28;20035;-78
2023/07/14 08:41:40;;;;;;;3.10;1.35;;;;;;;23.15;53.08;101599.50;5074240;28;20082;-77
2023/07/14 08:52:33;;;;;;;0.10;0.10;;;;;;;23.46;51.07;101595.78;5104773;27;20396;-79
2023/07/14 08:58:04;;;;;;;2.65;1.30;;;;;;;23.51;50.72;101592.81;5074690;28;20450;-76
2023/07/14 09:00:38;;;;;;;4.97;0.65;;;;;;;23.57;51.38;101604.09;5074397;28;20033;-78
2023/07/14 09:03:15;;;;;;;0.10;0.10;;;;;;;23.60;50.97;101600.31;5063287;28;20021;-78
2023/07/14 09:05:51;;;;;;;0.10;0.10;;;;;;;23.54;49.34;101587.19;5056116;28;20491;-78
2023/07/14 09:08:17;;;;;;;0.20;0.20;;;;;;;23.58;48.99;101581.50;5057355;28;20516;-77
2023/07/14 09:10:53;;;;;;;0.20;0.20;;;;;;;23.59;48.47;101582.38;5057797;28;20033;-77
2023/07/14 09:16:01;;;;;;;0.17;0.17;;;;;;;23.82;49.29;101559.22;5116893;27;20438;-78
2023/07/14 09:21:31;;;;;;;0.10;0.10;;;;;;;24.30;48.86;101558.84;5070829;27;20422;-78
2023/07/14 09:27:03;;;;;;;0.00;0.00;;;;;;;24.69;46.89;101557.16;5126713;27;20429;-76
2023/07/14 09:29:41;;;;;;;0.10;0.10;;;;;;;24.75;45.66;101566.72;5120418;28;20034;-77
2023/07/14 09:35:07;;;;;;;0.10;0.10;;;;;;;24.96;45.29;101552.63;5115298;27;20769;-78
2023/07/14 09:37:39;;;;;;;0.35;0.35;;;;;;;25.01;45.84;101564.00;5117079;28;20033;-78
2023/07/14 09:42:56;;;;;;;0.60;0.60;;;;;;;25.02;46.13;101565.75;5085031;27;20386;-75
2023/07/14 09:53:27;;;;;;;0.10;0.10;;;;;;;25.43;44.44;101553.84;5119604;27;20412;-79
2023/07/14 09:56:00;;;;;;;0.28;0.28;;;;;;;25.49;43.70;101547.97;5117279;28;20035;-79
2023/07/14 09:58:30;;;;;;;0.15;0.10;;;;;;;25.56;43.37;101547.53;5117881;28;20077;-78
2023/07/14 10:01:01;;;;;;;0.10;0.10;;;;;;;25.52;43.25;101542.34;5116849;28;20023;-78
2023/07/14 10:03:36;;;;;;;0.03;0.03;;;;;;;25.57;42.12;101538.41;5118407;28;20030;-78
2023/07/14 10:06:11;;;;;;;0.10;0.10;;;;;;;25.67;43.21;101529.50;5118181;28;20388;-79
2023/07/14 10:08:49;;;;;;;0.57;0.57;;;;;;;25.73;41.62;101522.72;5117591;28;20024;-78
2023/07/14 10:11:29;;;;;;;0.00;0.00;;;;;;;25.75;42.35;101523.50;5117163;28;20024;-76
2023/07/14 10:14:25;;;;;;;0.10;0.10;;;;;;;25.72;42.46;101526.47;5113201;28;20089;-76
2023/07/14 10:16:53;;;;;;;0.10;0.10;;;;;;;25.61;41.55;101524.53;5107808;28;20024;-78
2023/07/14 10:19:21;;;;;;;0.10;0.10;;;;;;;25.63;41.35;101516.25;5115761;28;20134;-78
2023/07/14 10:24:37;;;;;;;0.10;0.10;;;;;;;25.57;40.58;101516.72;5077214;28;20099;-79
2023/07/14 10:27:15;;;;;;;0.32;0.32;;;;;;;25.68;42.61;101514.06;5077874;28;20032;-78
2023/07/14 10:35:17;;;;;;;0.10;0.10;;;;;;;25.70;41.01;101512.13;5115620;27;20905;-78
2023/07/14 10:37:56;;;;;;;0.10;0.10;;;;;;;25.54;39.75;101514.22;5118441;28;20023;-78
2023/07/14 10:40:26;;;;;;;0.05;0.05;;;;;;;25.34;40.51;101516.50;5116314;28;20024;-76
2023/07/14 10:45:34;;;;;;;4.95;0.32;;;;;;;25.20;41.37;101515.66;5103940;27;20416;-74
2023/07/14 10:48:14;;;;;;;0.08;0.08;;;;;;;25.19;41.46;101484.06;5117004;28;20433;-76
2023/07/14 10:51:02;;;;;;;0.10;0.10;;;;;;;25.19;41.02;101469.66;5107959;28;20024;-78
2023/07/14 10:53:55;;;;;;;0.17;0.17;;;;;;;25.26;41.27;101449.25;5099998;28;20028;-77
2023/07/14 10:56:31;;;;;;;0.10;0.10;;;;;;;25.32;41.93;101456.06;5098636;28;20045;-78
2023/07/14 10:59:06;;;;;;;0.10;0.10;;;;;;;25.42;41.58;101464.44;5096159;28;20024;-79
2023/07/14 11:01:36;;;;;;;0.40;0.40;;;;;;;25.44;42.28;101471.47;5095604;28;20025;-76
2023/07/14 11:04:19;;;;;;;0.10;0.10;;;;;;;25.56;42.77;101464.31;5106882;28;20028;-77
2023/07/14 11:06:49;;;;;;;1.20;1.20;;;;;;;25.49;42.63;101466.59;5097732;28;20498;-78
2023/07/14 11:09:15;;;;;;;0.00;0.00;;;;;;;25.48;43.20;101472.13;5096249;28;20051;-78
2023/07/14 11:12:00;;;;;;;0.15;0.15;;;;;;;25.44;43.41;101468.78;5097820;28;20099;-79
2023/07/14 11:14:45;;;;;;;0.10;0.10;;;;;;;25.42;43.69;101462.59;5098365;28;20024;-77
2023/07/14 11:17:43;;;;;;;0.10;0.10;;;;;;;25.44;43.79;101457.91;5102682;28;20024;-77
2023/07/14 11:20:33;;;;;;;0.00;0.00;;;;;;;25.46;41.54;101445.13;5092509;28;20035;-77
2023/07/14 11:26:09;;;;;;;0.10;0.10;;;;;;;25.66;43.25;101429.22;5125075;27;20390;-79
2023/07/14 11:28:51;;;;;;;4.63;0.50;;;;;;;25.68;43.74;101438.09;5119404;27;20039;-79
2023/07/14 11:31:29;;;;;;;0.10;0.10;;;;;;;25.78;42.97;101439.16;5115280;27;20034;-80
2023/07/14 11:37:29;;;;;;;0.28;0.28;;;;;;;26.16;43.27;101429.94;5074039;28;20890;-82
2023/07/14 11:39:58;;;;;;;0.10;0.10;;;;;;;26.25;43.04;101428.38;5052897;28;20453;-79
2023/07/14 11:42:35;;;;;;;0.10;0.10;;;;;;;26.48;43.08;101415.72;5053896;28;20045;-80
2023/07/14 11:45:11;;;;;;;0.32;0.32;;;;;;;26.66;42.45;101417.97;5033403;28;20021;-80
2023/07/14 11:47:41;;;;;;;0.10;0.10;;;;;;;26.89;42.02;101418.00;5033713;28;20050;-80
2023/07/14 11:50:29;;;;;;;0.08;0.08;;;;;;;27.17;40.27;101407.63;5035020;28;20030;-79
2023/07/14 11:53:02;;;;;;;0.10;0.10;;;;;;;27.30;39.27;101405.59;5031498;28;20060;-79
2023/07/14 11:55:30;;;;;;;0.43;0.43;;;;;;;27.49;38.93;101401.38;5034958;28;20661;-80
2023/07/14 11:58:31;;;;;;;0.10;0.10;;;;;;;27.75;38.66;101401.91;5038673;28;20029;-80
2023/07/14 12:01:16;;;;;;;0.10;0.10;;;;;;;27.84;39.31;101403.00;5028237;28;20026;-80
2023/07/14 12:03:52;;;;;;;0.20;0.20;;;;;;;27.87;37.31;101411.78;5033496;28;20034;-80
2023/07/14 12:09:16;;;;;;;0.00;0.00;;;;;;;28.23;37.79;101403.34;5096377;27;20299;-82
2023/07/14 12:20:28;;;;;;;0.17;0.17;;;;;;;28.39;36.20;101387.38;5072212;28;20415;-82
2023/07/14 12:23:23;;;;;;;0.55;0.55;;;;;;;28.69;36.50;101385.72;5060869;28;20108;-81
2023/07/14 12:25:56;;;;;;;0.55;0.55;;;;;;;28.77;35.57;101373.25;5051854;28;20025;-81
2023/07/14 12:28:32;;;;;;;0.03;0.03;;;;;;;28.85;34.43;101373.44;5053530;28;20506;-81
2023/07/14 12:31:02;;;;;;;0.00;0.00;;;;;;;28.73;34.72;101361.75;5051842;28;20032;-80
2023/07/14 12:33:28;;;;;;;0.03;0.03;;;;;;;28.65;35.89;101358.81;5053709;28;20029;-80
2023/07/14 12:35:54;;;;;;;0.05;0.05;;;;;;;28.53;34.46;101334.38;5052566;28;20108;-80
2023/07/14 12:38:23;;;;;;;0.17;0.17;;;;;;;28.52;36.10;101331.78;5053255;28;20036;-80
2023/07/14 12:40:52;;;;;;;0.10;0.10;;;;;;;28.53;36.24;101328.06;5060039;28;20509;-81
2023/07/14 12:43:55;;;;;;;0.10;0.10;;;;;;;28.66;36.81;101334.16;5061522;28;20045;-80
2023/07/14 12:46:27;;;;;;;0.43;0.43;;;;;;;28.51;35.54;101330.94;5054953;28;20079;-81
2023/07/14 12:51:41;;;;;;;0.00;0.00;;;;;;;28.33;35.36;101314.34;5052562;27;20432;-81
2023/07/14 12:54:17;;;;;;;0.00;0.00;;;;;;;28.33;35.88;101313.50;5038376;28;20052;-79
2023/07/14 12:56:43;;;;;;;0.00;0.00;;;;;;;28.14;35.11;101316.97;5034678;28;20047;-78
2023/07/14 12:59:17;;;;;;;0.10;0.10;;;;;;;28.31;36.52;101302.72;5053345;28;20204;-78
2023/07/14 13:01:45;;;;;;;0.05;0.05;;;;;;;28.23;35.65;101300.66;5099512;27;20026;-80
2023/07/14 13:04:12;;;;;;;0.05;0.05;;;;;;;28.23;36.18;101306.13;5047399;27;20040;-80
2023/07/14 13:06:41;;;;;;;0.10;0.10;;;;;;;28.24;36.19;101307.84;5092664;28;20824;-80
2023/07/14 13:09:10;;;;;;;0.10;0.10;;;;;;;28.24;36.66;101304.28;5088875;27;20041;-78